シアトル/タコマ の空港の天気 - METARとTAF

シアトル・タコマ国際空港 ( KSEA / SEA ) - アメリカ ワシントン州シアトル
飛行場実況気象(Metar)
観測時間02/05 12:53 PST (02/05 20:53 UTC)
風向・風速南 2m/s
視程10km以上
天気現象
全天の8割程度の雲 雲底高度 210m
全天の8割程度の雲 雲底高度 430m
全天を覆う雲 雲底高度 610m
気温7.8℃
湿度89%
気圧1012.8hPa
METARKSEA 052053Z 17003KT 10SM BKN007 BKN014 OVC020 08/06 A2988 RMK AO2 RAE38 SLP128 P0001 60003 T00780061 51022
過去の天気等 Google飛行場航空写真 Wunderground天気予報

過去48時間のMETAR

飛行場予報(TAF)
発表時間: 2/05 11:52 PST (2/05 19:52 UTC)
予報対象時間: 5日12時 PST ~ 6日16時 PST
風向・風速南南東 3m/s
視程10km以上
天気現象弱い雨
全天の4割程度の雲 雲底高度 150m
全天の8割程度の雲 雲底高度 1070m
全天を覆う雲 雲底高度 1520m
5日12時 PST ~ 5日14時 PST に一時的に
全天の8割程度の雲 雲底高度 150m
5日14時 PST から
風向・風速西南西 4m/s
視程10km以上
天気現象弱い雨
全天を覆う雲 雲底高度 910m
5日21時 PST から
風向・風速南西 6m/s
視程10km以上
全天を覆う雲 雲底高度 1520m
6日4時 PST から
風向・風速南南西 5m/s
視程10km以上
全天を覆う雲 雲底高度 760m
KSEA 051952Z 0520/0624 15005KT P6SM -RA SCT005 BKN035 OVC050
TEMPO 0520/0522 BKN005
FM052200 24008KT P6SM -RA OVC030
FM060500 23012KT P6SM OVC050
FM061200 20009KT P6SM OVC025